sensor_id;sensor_type;location;lat;lon;timestamp;P1;durP1;ratioP1;P2;durP2;ratioP2
27163;SDS011;14685;50.618;7.024;2022-09-29T00:00:41;4.70;;;2.17;;
27163;SDS011;14685;50.618;7.024;2022-09-29T00:03:08;3.55;;;2.03;;
27163;SDS011;14685;50.618;7.024;2022-09-29T00:05:35;2.47;;;1.80;;
27163;SDS011;14685;50.618;7.024;2022-09-29T00:08:02;2.30;;;1.88;;
27163;SDS011;14685;50.618;7.024;2022-09-29T00:10:29;2.78;;;2.17;;
27163;SDS011;14685;50.618;7.024;2022-09-29T00:12:56;2.65;;;2.20;;
27163;SDS011;14685;50.618;7.024;2022-09-29T00:15:27;3.42;;;2.10;;
27163;SDS011;14685;50.618;7.024;2022-09-29T00:17:54;2.30;;;1.77;;
27163;SDS011;14685;50.618;7.024;2022-09-29T00:20:39;3.42;;;2.58;;
27163;SDS011;14685;50.618;7.024;2022-09-29T00:23:07;2.25;;;2.05;;
27163;SDS011;14685;50.618;7.024;2022-09-29T00:25:41;3.83;;;2.28;;
27163;SDS011;14685;50.618;7.024;2022-09-29T00:28:08;3.88;;;2.28;;
27163;SDS011;14685;50.618;7.024;2022-09-29T00:30:36;3.70;;;2.38;;
27163;SDS011;14685;50.618;7.024;2022-09-29T00:33:02;3.28;;;2.60;;
27163;SDS011;14685;50.618;7.024;2022-09-29T00:35:29;2.90;;;1.90;;
27163;SDS011;14685;50.618;7.024;2022-09-29T00:37:56;4.88;;;2.50;;
27163;SDS011;14685;50.618;7.024;2022-09-29T00:40:23;5.15;;;1.90;;
27163;SDS011;14685;50.618;7.024;2022-09-29T00:42:49;4.00;;;2.40;;
27163;SDS011;14685;50.618;7.024;2022-09-29T00:45:20;3.08;;;2.40;;
27163;SDS011;14685;50.618;7.024;2022-09-29T00:47:51;2.78;;;2.15;;
27163;SDS011;14685;50.618;7.024;2022-09-29T00:50:35;2.00;;;1.80;;
27163;SDS011;14685;50.618;7.024;2022-09-29T00:53:08;2.20;;;2.00;;
27163;SDS011;14685;50.618;7.024;2022-09-29T00:55:42;3.78;;;2.53;;
27163;SDS011;14685;50.618;7.024;2022-09-29T01:00:56;4.05;;;2.22;;
27163;SDS011;14685;50.618;7.024;2022-09-29T01:03:26;4.40;;;2.40;;
27163;SDS011;14685;50.618;7.024;2022-09-29T01:05:55;4.05;;;2.38;;
27163;SDS011;14685;50.618;7.024;2022-09-29T01:08:27;2.30;;;2.10;;
27163;SDS011;14685;50.618;7.024;2022-09-29T01:11:06;5.75;;;2.30;;
27163;SDS011;14685;50.618;7.024;2022-09-29T01:13:35;2.65;;;2.28;;
27163;SDS011;14685;50.618;7.024;2022-09-29T01:16:03;4.45;;;2.58;;
27163;SDS011;14685;50.618;7.024;2022-09-29T01:18:30;2.85;;;2.20;;
27163;SDS011;14685;50.618;7.024;2022-09-29T01:23:44;5.95;;;2.58;;
27163;SDS011;14685;50.618;7.024;2022-09-29T01:29:43;3.25;;;2.17;;
27163;SDS011;14685;50.618;7.024;2022-09-29T01:32:37;2.78;;;2.40;;
27163;SDS011;14685;50.618;7.024;2022-09-29T01:40:28;4.47;;;2.40;;
27163;SDS011;14685;50.618;7.024;2022-09-29T01:43:23;4.35;;;2.63;;
27163;SDS011;14685;50.618;7.024;2022-09-29T01:46:03;2.90;;;2.42;;
27163;SDS011;14685;50.618;7.024;2022-09-29T01:48:39;3.60;;;2.22;;
27163;SDS011;14685;50.618;7.024;2022-09-29T01:51:12;2.83;;;2.22;;
27163;SDS011;14685;50.618;7.024;2022-09-29T01:53:48;2.90;;;2.70;;
27163;SDS011;14685;50.618;7.024;2022-09-29T01:56:24;4.45;;;2.53;;
27163;SDS011;14685;50.618;7.024;2022-09-29T01:59:04;3.38;;;2.70;;
27163;SDS011;14685;50.618;7.024;2022-09-29T02:01:38;2.65;;;2.08;;
27163;SDS011;14685;50.618;7.024;2022-09-29T02:04:15;2.10;;;2.00;;
27163;SDS011;14685;50.618;7.024;2022-09-29T02:06:55;3.88;;;2.50;;
27163;SDS011;14685;50.618;7.024;2022-09-29T02:09:28;3.05;;;2.40;;
27163;SDS011;14685;50.618;7.024;2022-09-29T02:12:01;2.72;;;2.50;;
27163;SDS011;14685;50.618;7.024;2022-09-29T02:14:32;3.65;;;2.95;;
27163;SDS011;14685;50.618;7.024;2022-09-29T02:19:47;4.15;;;3.00;;
27163;SDS011;14685;50.618;7.024;2022-09-29T02:22:16;6.05;;;2.53;;
27163;SDS011;14685;50.618;7.024;2022-09-29T02:24:44;3.72;;;2.70;;
27163;SDS011;14685;50.618;7.024;2022-09-29T02:27:11;4.18;;;2.60;;
27163;SDS011;14685;50.618;7.024;2022-09-29T02:29:40;3.53;;;2.70;;
27163;SDS011;14685;50.618;7.024;2022-09-29T02:32:07;6.07;;;2.88;;
27163;SDS011;14685;50.618;7.024;2022-09-29T02:34:39;2.60;;;2.40;;
27163;SDS011;14685;50.618;7.024;2022-09-29T02:40:10;5.43;;;3.00;;
27163;SDS011;14685;50.618;7.024;2022-09-29T02:46:07;3.55;;;2.63;;
27163;SDS011;14685;50.618;7.024;2022-09-29T02:51:26;5.03;;;2.45;;
27163;SDS011;14685;50.618;7.024;2022-09-29T02:54:18;3.33;;;2.78;;
27163;SDS011;14685;50.618;7.024;2022-09-29T03:00:11;3.10;;;2.80;;
27163;SDS011;14685;50.618;7.024;2022-09-29T03:02:41;2.95;;;2.65;;
27163;SDS011;14685;50.618;7.024;2022-09-29T03:05:10;4.32;;;2.88;;
27163;SDS011;14685;50.618;7.024;2022-09-29T03:07:38;5.28;;;2.58;;
27163;SDS011;14685;50.618;7.024;2022-09-29T03:10:06;5.28;;;2.67;;
27163;SDS011;14685;50.618;7.024;2022-09-29T03:12:35;3.33;;;2.60;;
27163;SDS011;14685;50.618;7.024;2022-09-29T03:15:02;4.32;;;2.60;;
27163;SDS011;14685;50.618;7.024;2022-09-29T03:17:30;8.27;;;3.10;;
27163;SDS011;14685;50.618;7.024;2022-09-29T03:19:57;3.15;;;2.58;;
27163;SDS011;14685;50.618;7.024;2022-09-29T03:22:24;4.97;;;2.83;;
27163;SDS011;14685;50.618;7.024;2022-09-29T03:24:51;4.40;;;2.40;;
27163;SDS011;14685;50.618;7.024;2022-09-29T03:27:18;2.72;;;2.45;;
27163;SDS011;14685;50.618;7.024;2022-09-29T03:29:45;4.38;;;2.58;;
27163;SDS011;14685;50.618;7.024;2022-09-29T03:32:12;2.17;;;1.95;;
27163;SDS011;14685;50.618;7.024;2022-09-29T03:34:42;2.30;;;2.10;;
27163;SDS011;14685;50.618;7.024;2022-09-29T03:37:09;6.63;;;2.35;;
27163;SDS011;14685;50.618;7.024;2022-09-29T03:39:35;3.92;;;2.40;;
27163;SDS011;14685;50.618;7.024;2022-09-29T03:42:02;5.80;;;2.50;;
27163;SDS011;14685;50.618;7.024;2022-09-29T03:44:29;2.60;;;2.30;;
27163;SDS011;14685;50.618;7.024;2022-09-29T03:46:59;4.88;;;3.00;;
27163;SDS011;14685;50.618;7.024;2022-09-29T03:49:27;2.30;;;2.08;;
27163;SDS011;14685;50.618;7.024;2022-09-29T03:51:56;3.55;;;2.53;;
27163;SDS011;14685;50.618;7.024;2022-09-29T03:54:25;2.83;;;2.17;;
27163;SDS011;14685;50.618;7.024;2022-09-29T03:56:53;2.42;;;2.13;;
27163;SDS011;14685;50.618;7.024;2022-09-29T03:59:19;2.40;;;2.20;;
27163;SDS011;14685;50.618;7.024;2022-09-29T04:01:48;2.67;;;2.38;;
27163;SDS011;14685;50.618;7.024;2022-09-29T04:04:15;6.35;;;2.38;;
27163;SDS011;14685;50.618;7.024;2022-09-29T04:06:42;2.35;;;2.15;;
27163;SDS011;14685;50.618;7.024;2022-09-29T04:09:08;4.30;;;2.78;;
27163;SDS011;14685;50.618;7.024;2022-09-29T04:11:35;5.07;;;2.05;;
27163;SDS011;14685;50.618;7.024;2022-09-29T04:14:02;2.90;;;2.50;;
27163;SDS011;14685;50.618;7.024;2022-09-29T04:16:29;3.25;;;2.28;;
27163;SDS011;14685;50.618;7.024;2022-09-29T04:18:56;3.30;;;2.17;;
27163;SDS011;14685;50.618;7.024;2022-09-29T04:21:23;4.00;;;2.33;;
27163;SDS011;14685;50.618;7.024;2022-09-29T04:23:53;4.18;;;2.20;;
27163;SDS011;14685;50.618;7.024;2022-09-29T04:26:20;2.58;;;2.38;;
27163;SDS011;14685;50.618;7.024;2022-09-29T04:28:47;3.22;;;2.30;;
27163;SDS011;14685;50.618;7.024;2022-09-29T04:31:14;3.90;;;1.98;;
27163;SDS011;14685;50.618;7.024;2022-09-29T04:33:41;3.38;;;2.42;;
27163;SDS011;14685;50.618;7.024;2022-09-29T04:36:08;2.50;;;2.30;;
27163;SDS011;14685;50.618;7.024;2022-09-29T04:38:34;2.65;;;2.35;;
27163;SDS011;14685;50.618;7.024;2022-09-29T04:41:01;2.42;;;2.20;;
27163;SDS011;14685;50.618;7.024;2022-09-29T04:43:28;2.58;;;2.00;;
27163;SDS011;14685;50.618;7.024;2022-09-29T04:46:02;4.47;;;2.20;;
27163;SDS011;14685;50.618;7.024;2022-09-29T04:48:30;5.25;;;1.77;;
27163;SDS011;14685;50.618;7.024;2022-09-29T04:51:01;2.13;;;1.92;;
27163;SDS011;14685;50.618;7.024;2022-09-29T04:53:28;3.85;;;2.00;;
27163;SDS011;14685;50.618;7.024;2022-09-29T04:55:55;4.97;;;2.08;;
27163;SDS011;14685;50.618;7.024;2022-09-29T04:58:22;2.30;;;1.90;;
27163;SDS011;14685;50.618;7.024;2022-09-29T05:00:49;4.60;;;2.33;;
27163;SDS011;14685;50.618;7.024;2022-09-29T05:03:16;2.28;;;2.08;;
27163;SDS011;14685;50.618;7.024;2022-09-29T05:05:43;3.70;;;2.25;;
27163;SDS011;14685;50.618;7.024;2022-09-29T05:08:11;2.40;;;2.20;;
27163;SDS011;14685;50.618;7.024;2022-09-29T05:10:38;2.72;;;2.47;;
27163;SDS011;14685;50.618;7.024;2022-09-29T05:13:04;2.42;;;2.20;;
27163;SDS011;14685;50.618;7.024;2022-09-29T05:15:32;5.15;;;2.50;;
27163;SDS011;14685;50.618;7.024;2022-09-29T05:18:00;3.20;;;2.80;;
27163;SDS011;14685;50.618;7.024;2022-09-29T05:20:28;3.75;;;2.80;;
27163;SDS011;14685;50.618;7.024;2022-09-29T05:23:06;3.13;;;2.67;;
27163;SDS011;14685;50.618;7.024;2022-09-29T05:25:35;4.05;;;2.53;;
27163;SDS011;14685;50.618;7.024;2022-09-29T05:28:03;2.95;;;2.65;;
27163;SDS011;14685;50.618;7.024;2022-09-29T05:30:31;4.90;;;2.72;;
27163;SDS011;14685;50.618;7.024;2022-09-29T05:32:59;2.65;;;2.45;;
27163;SDS011;14685;50.618;7.024;2022-09-29T05:35:27;2.00;;;1.90;;
27163;SDS011;14685;50.618;7.024;2022-09-29T05:37:54;3.42;;;3.05;;
27163;SDS011;14685;50.618;7.024;2022-09-29T05:40:21;5.63;;;2.47;;
27163;SDS011;14685;50.618;7.024;2022-09-29T05:42:51;2.63;;;2.42;;
27163;SDS011;14685;50.618;7.024;2022-09-29T05:45:17;4.43;;;2.53;;
27163;SDS011;14685;50.618;7.024;2022-09-29T05:47:46;2.97;;;2.67;;
27163;SDS011;14685;50.618;7.024;2022-09-29T05:50:20;4.93;;;2.58;;
27163;SDS011;14685;50.618;7.024;2022-09-29T05:52:48;3.92;;;2.38;;
27163;SDS011;14685;50.618;7.024;2022-09-29T05:55:18;2.80;;;2.60;;
27163;SDS011;14685;50.618;7.024;2022-09-29T05:57:48;2.58;;;2.38;;
27163;SDS011;14685;50.618;7.024;2022-09-29T06:00:15;2.83;;;2.60;;
27163;SDS011;14685;50.618;7.024;2022-09-29T06:02:42;5.10;;;2.83;;
27163;SDS011;14685;50.618;7.024;2022-09-29T06:05:10;3.42;;;3.13;;
27163;SDS011;14685;50.618;7.024;2022-09-29T06:07:37;3.00;;;2.50;;
27163;SDS011;14685;50.618;7.024;2022-09-29T06:10:03;2.95;;;2.70;;
27163;SDS011;14685;50.618;7.024;2022-09-29T06:12:34;3.10;;;2.80;;
27163;SDS011;14685;50.618;7.024;2022-09-29T06:15:05;4.35;;;2.05;;
27163;SDS011;14685;50.618;7.024;2022-09-29T06:17:32;3.97;;;2.60;;
27163;SDS011;14685;50.618;7.024;2022-09-29T06:19:59;2.70;;;2.50;;
27163;SDS011;14685;50.618;7.024;2022-09-29T06:22:26;2.58;;;2.38;;
27163;SDS011;14685;50.618;7.024;2022-09-29T06:24:54;4.57;;;2.40;;
27163;SDS011;14685;50.618;7.024;2022-09-29T06:27:22;3.60;;;2.20;;
27163;SDS011;14685;50.618;7.024;2022-09-29T06:29:49;2.10;;;1.90;;
27163;SDS011;14685;50.618;7.024;2022-09-29T06:32:16;2.65;;;2.40;;
27163;SDS011;14685;50.618;7.024;2022-09-29T06:34:43;2.97;;;2.28;;
27163;SDS011;14685;50.618;7.024;2022-09-29T06:37:29;2.78;;;2.58;;
27163;SDS011;14685;50.618;7.024;2022-09-29T06:40:05;4.63;;;3.33;;
27163;SDS011;14685;50.618;7.024;2022-09-29T06:42:36;3.88;;;2.97;;
27163;SDS011;14685;50.618;7.024;2022-09-29T06:45:04;3.00;;;2.70;;
27163;SDS011;14685;50.618;7.024;2022-09-29T06:47:31;2.70;;;2.28;;
27163;SDS011;14685;50.618;7.024;2022-09-29T06:49:57;2.95;;;2.40;;
27163;SDS011;14685;50.618;7.024;2022-09-29T06:52:44;2.83;;;2.40;;
27163;SDS011;14685;50.618;7.024;2022-09-29T06:55:27;3.20;;;2.90;;
27163;SDS011;14685;50.618;7.024;2022-09-29T06:57:57;3.35;;;2.53;;
27163;SDS011;14685;50.618;7.024;2022-09-29T07:00:30;3.35;;;2.88;;
27163;SDS011;14685;50.618;7.024;2022-09-29T07:02:58;3.05;;;2.75;;
27163;SDS011;14685;50.618;7.024;2022-09-29T07:05:27;3.95;;;2.78;;
27163;SDS011;14685;50.618;7.024;2022-09-29T07:07:53;3.38;;;2.58;;
27163;SDS011;14685;50.618;7.024;2022-09-29T07:10:26;3.35;;;2.75;;
27163;SDS011;14685;50.618;7.024;2022-09-29T07:12:52;3.22;;;2.72;;
27163;SDS011;14685;50.618;7.024;2022-09-29T07:15:21;3.42;;;2.22;;
27163;SDS011;14685;50.618;7.024;2022-09-29T07:17:51;4.22;;;2.75;;
27163;SDS011;14685;50.618;7.024;2022-09-29T07:20:22;6.53;;;3.00;;
27163;SDS011;14685;50.618;7.024;2022-09-29T07:22:48;3.50;;;2.70;;
27163;SDS011;14685;50.618;7.024;2022-09-29T07:25:16;2.67;;;2.47;;
27163;SDS011;14685;50.618;7.024;2022-09-29T07:28:05;3.03;;;2.53;;
27163;SDS011;14685;50.618;7.024;2022-09-29T07:30:32;4.70;;;2.67;;
27163;SDS011;14685;50.618;7.024;2022-09-29T07:33:05;4.05;;;2.58;;
27163;SDS011;14685;50.618;7.024;2022-09-29T07:35:32;5.15;;;3.50;;
27163;SDS011;14685;50.618;7.024;2022-09-29T07:38:05;3.30;;;2.75;;
27163;SDS011;14685;50.618;7.024;2022-09-29T07:40:32;3.60;;;2.95;;
27163;SDS011;14685;50.618;7.024;2022-09-29T07:42:58;3.25;;;2.60;;
27163;SDS011;14685;50.618;7.024;2022-09-29T07:45:26;5.40;;;3.53;;
27163;SDS011;14685;50.618;7.024;2022-09-29T07:47:55;3.75;;;3.30;;
27163;SDS011;14685;50.618;7.024;2022-09-29T07:50:22;3.45;;;2.70;;
27163;SDS011;14685;50.618;7.024;2022-09-29T07:52:49;3.28;;;2.55;;
27163;SDS011;14685;50.618;7.024;2022-09-29T07:55:17;4.18;;;2.65;;
27163;SDS011;14685;50.618;7.024;2022-09-29T07:57:46;2.83;;;2.55;;
27163;SDS011;14685;50.618;7.024;2022-09-29T08:00:13;3.92;;;2.60;;
27163;SDS011;14685;50.618;7.024;2022-09-29T08:02:42;4.03;;;2.80;;
27163;SDS011;14685;50.618;7.024;2022-09-29T08:05:11;7.47;;;3.28;;
27163;SDS011;14685;50.618;7.024;2022-09-29T08:07:38;5.53;;;3.03;;
27163;SDS011;14685;50.618;7.024;2022-09-29T08:10:06;5.45;;;2.45;;
27163;SDS011;14685;50.618;7.024;2022-09-29T08:12:42;3.63;;;2.75;;
27163;SDS011;14685;50.618;7.024;2022-09-29T08:15:09;3.53;;;2.90;;
27163;SDS011;14685;50.618;7.024;2022-09-29T08:17:37;3.10;;;2.85;;
27163;SDS011;14685;50.618;7.024;2022-09-29T08:20:06;5.20;;;2.70;;
27163;SDS011;14685;50.618;7.024;2022-09-29T08:22:34;5.13;;;2.97;;
27163;SDS011;14685;50.618;7.024;2022-09-29T08:25:01;2.90;;;2.65;;
27163;SDS011;14685;50.618;7.024;2022-09-29T08:27:28;4.10;;;2.95;;
27163;SDS011;14685;50.618;7.024;2022-09-29T08:29:54;3.42;;;3.00;;
27163;SDS011;14685;50.618;7.024;2022-09-29T08:32:23;6.18;;;3.35;;
27163;SDS011;14685;50.618;7.024;2022-09-29T08:34:51;3.35;;;3.00;;
27163;SDS011;14685;50.618;7.024;2022-09-29T08:37:18;5.75;;;3.20;;
27163;SDS011;14685;50.618;7.024;2022-09-29T08:39:45;3.80;;;3.42;;
27163;SDS011;14685;50.618;7.024;2022-09-29T08:45:14;4.13;;;3.38;;
27163;SDS011;14685;50.618;7.024;2022-09-29T08:47:51;3.25;;;2.67;;
27163;SDS011;14685;50.618;7.024;2022-09-29T08:50:44;5.15;;;3.03;;
27163;SDS011;14685;50.618;7.024;2022-09-29T08:53:14;3.95;;;3.30;;
27163;SDS011;14685;50.618;7.024;2022-09-29T08:55:56;3.60;;;3.30;;
27163;SDS011;14685;50.618;7.024;2022-09-29T08:58:23;4.40;;;2.95;;
27163;SDS011;14685;50.618;7.024;2022-09-29T09:06:46;4.50;;;2.78;;
27163;SDS011;14685;50.618;7.024;2022-09-29T09:12:11;3.70;;;3.30;;
27163;SDS011;14685;50.618;7.024;2022-09-29T09:14:57;6.47;;;2.70;;
27163;SDS011;14685;50.618;7.024;2022-09-29T09:20:24;4.65;;;3.03;;
27163;SDS011;14685;50.618;7.024;2022-09-29T09:25:45;3.88;;;2.88;;
27163;SDS011;14685;50.618;7.024;2022-09-29T09:28:36;4.85;;;3.40;;
27163;SDS011;14685;50.618;7.024;2022-09-29T09:31:17;4.03;;;2.88;;
27163;SDS011;14685;50.618;7.024;2022-09-29T09:34:05;4.63;;;3.22;;
27163;SDS011;14685;50.618;7.024;2022-09-29T09:36:40;4.25;;;3.40;;
27163;SDS011;14685;50.618;7.024;2022-09-29T09:39:41;4.25;;;3.58;;
27163;SDS011;14685;50.618;7.024;2022-09-29T09:42:24;3.92;;;3.53;;
27163;SDS011;14685;50.618;7.024;2022-09-29T09:44:58;3.80;;;3.05;;
27163;SDS011;14685;50.618;7.024;2022-09-29T09:47:34;7.28;;;3.53;;
27163;SDS011;14685;50.618;7.024;2022-09-29T09:50:13;3.70;;;3.05;;
27163;SDS011;14685;50.618;7.024;2022-09-29T09:52:51;3.97;;;3.28;;
27163;SDS011;14685;50.618;7.024;2022-09-29T09:55:46;5.65;;;4.10;;
27163;SDS011;14685;50.618;7.024;2022-09-29T10:01:14;8.00;;;3.40;;
27163;SDS011;14685;50.618;7.024;2022-09-29T10:03:40;7.15;;;3.53;;
27163;SDS011;14685;50.618;7.024;2022-09-29T10:06:07;4.72;;;3.45;;
27163;SDS011;14685;50.618;7.024;2022-09-29T10:08:35;4.85;;;4.10;;
27163;SDS011;14685;50.618;7.024;2022-09-29T10:13:49;4.80;;;3.80;;
27163;SDS011;14685;50.618;7.024;2022-09-29T10:16:25;4.57;;;3.70;;
27163;SDS011;14685;50.618;7.024;2022-09-29T10:18:57;4.65;;;3.75;;
27163;SDS011;14685;50.618;7.024;2022-09-29T10:23:57;6.32;;;3.67;;
27163;SDS011;14685;50.618;7.024;2022-09-29T10:29:17;7.68;;;4.90;;
27163;SDS011;14685;50.618;7.024;2022-09-29T10:32:04;4.90;;;3.35;;
27163;SDS011;14685;50.618;7.024;2022-09-29T10:34:35;7.78;;;3.63;;
27163;SDS011;14685;50.618;7.024;2022-09-29T10:37:19;4.57;;;3.38;;
27163;SDS011;14685;50.618;7.024;2022-09-29T10:40:08;8.95;;;4.22;;
27163;SDS011;14685;50.618;7.024;2022-09-29T10:42:41;5.40;;;4.07;;
27163;SDS011;14685;50.618;7.024;2022-09-29T10:45:13;7.53;;;4.97;;
27163;SDS011;14685;50.618;7.024;2022-09-29T10:50:25;4.82;;;3.58;;
27163;SDS011;14685;50.618;7.024;2022-09-29T10:52:56;6.20;;;3.55;;
27163;SDS011;14685;50.618;7.024;2022-09-29T10:55:25;7.05;;;3.38;;
27163;SDS011;14685;50.618;7.024;2022-09-29T10:57:56;3.88;;;2.33;;
27163;SDS011;14685;50.618;7.024;2022-09-29T11:00:31;5.28;;;2.35;;
27163;SDS011;14685;50.618;7.024;2022-09-29T11:03:03;4.70;;;2.80;;
27163;SDS011;14685;50.618;7.024;2022-09-29T11:05:52;4.60;;;2.58;;
27163;SDS011;14685;50.618;7.024;2022-09-29T11:08:22;6.75;;;3.20;;
27163;SDS011;14685;50.618;7.024;2022-09-29T11:13:34;7.55;;;2.85;;
27163;SDS011;14685;50.618;7.024;2022-09-29T11:16:13;2.50;;;2.15;;
27163;SDS011;14685;50.618;7.024;2022-09-29T11:18:42;4.03;;;2.65;;
27163;SDS011;14685;50.618;7.024;2022-09-29T11:26:20;4.03;;;2.40;;
27163;SDS011;14685;50.618;7.024;2022-09-29T11:31:38;7.18;;;2.75;;
27163;SDS011;14685;50.618;7.024;2022-09-29T11:37:23;4.50;;;1.58;;
27163;SDS011;14685;50.618;7.024;2022-09-29T11:40:10;7.15;;;1.75;;
27163;SDS011;14685;50.618;7.024;2022-09-29T11:45:33;3.70;;;1.55;;
27163;SDS011;14685;50.618;7.024;2022-09-29T11:56:42;5.00;;;2.10;;
27163;SDS011;14685;50.618;7.024;2022-09-29T11:59:38;3.58;;;1.60;;
27163;SDS011;14685;50.618;7.024;2022-09-29T12:02:27;5.57;;;1.58;;
27163;SDS011;14685;50.618;7.024;2022-09-29T12:10:44;2.72;;;1.60;;
27163;SDS011;14685;50.618;7.024;2022-09-29T12:16:13;4.07;;;1.60;;
27163;SDS011;14685;50.618;7.024;2022-09-29T12:18:51;8.30;;;2.00;;
27163;SDS011;14685;50.618;7.024;2022-09-29T12:21:38;5.45;;;1.83;;
27163;SDS011;14685;50.618;7.024;2022-09-29T12:24:14;3.15;;;1.67;;
27163;SDS011;14685;50.618;7.024;2022-09-29T12:26:48;4.80;;;1.80;;
27163;SDS011;14685;50.618;7.024;2022-09-29T12:31:55;4.10;;;2.17;;
27163;SDS011;14685;50.618;7.024;2022-09-29T12:34:27;3.13;;;2.17;;
27163;SDS011;14685;50.618;7.024;2022-09-29T12:37:04;3.95;;;2.00;;
27163;SDS011;14685;50.618;7.024;2022-09-29T12:40:09;3.55;;;1.90;;
27163;SDS011;14685;50.618;7.024;2022-09-29T12:43:02;2.63;;;2.42;;
27163;SDS011;14685;50.618;7.024;2022-09-29T12:51:31;4.75;;;2.10;;
27163;SDS011;14685;50.618;7.024;2022-09-29T12:56:48;4.60;;;2.10;;
27163;SDS011;14685;50.618;7.024;2022-09-29T13:01:55;3.53;;;1.73;;
27163;SDS011;14685;50.618;7.024;2022-09-29T13:04:32;3.70;;;1.58;;
27163;SDS011;14685;50.618;7.024;2022-09-29T13:09:49;7.90;;;1.80;;
27163;SDS011;14685;50.618;7.024;2022-09-29T13:15:22;5.30;;;1.95;;
27163;SDS011;14685;50.618;7.024;2022-09-29T13:18:17;5.82;;;2.40;;
27163;SDS011;14685;50.618;7.024;2022-09-29T13:23:28;7.05;;;2.10;;
27163;SDS011;14685;50.618;7.024;2022-09-29T13:26:27;6.10;;;2.47;;
27163;SDS011;14685;50.618;7.024;2022-09-29T13:29:03;6.57;;;2.28;;
27163;SDS011;14685;50.618;7.024;2022-09-29T13:31:36;7.18;;;2.28;;
27163;SDS011;14685;50.618;7.024;2022-09-29T13:34:05;3.80;;;1.95;;
27163;SDS011;14685;50.618;7.024;2022-09-29T13:36:44;6.15;;;1.92;;
27163;SDS011;14685;50.618;7.024;2022-09-29T13:39:25;4.70;;;2.20;;
27163;SDS011;14685;50.618;7.024;2022-09-29T13:41:53;3.35;;;1.50;;
27163;SDS011;14685;50.618;7.024;2022-09-29T13:44:24;5.65;;;1.60;;
27163;SDS011;14685;50.618;7.024;2022-09-29T13:46:53;2.05;;;0.90;;
27163;SDS011;14685;50.618;7.024;2022-09-29T13:58:33;2.70;;;1.08;;
27163;SDS011;14685;50.618;7.024;2022-09-29T14:01:09;3.30;;;1.20;;
27163;SDS011;14685;50.618;7.024;2022-09-29T14:03:41;3.92;;;0.93;;
27163;SDS011;14685;50.618;7.024;2022-09-29T14:06:17;1.95;;;1.00;;
27163;SDS011;14685;50.618;7.024;2022-09-29T14:09:12;1.63;;;1.15;;
27163;SDS011;14685;50.618;7.024;2022-09-29T14:11:51;2.00;;;0.88;;
27163;SDS011;14685;50.618;7.024;2022-09-29T14:14:23;3.28;;;1.15;;
27163;SDS011;14685;50.618;7.024;2022-09-29T14:19:35;2.78;;;0.82;;
27163;SDS011;14685;50.618;7.024;2022-09-29T14:30:49;0.88;;;0.63;;
27163;SDS011;14685;50.618;7.024;2022-09-29T14:38:42;1.05;;;0.90;;
27163;SDS011;14685;50.618;7.024;2022-09-29T14:41:31;2.00;;;0.90;;
27163;SDS011;14685;50.618;7.024;2022-09-29T15:03:18;4.00;;;1.02;;
27163;SDS011;14685;50.618;7.024;2022-09-29T15:08:38;2.65;;;1.08;;
27163;SDS011;14685;50.618;7.024;2022-09-29T15:22:04;3.22;;;1.33;;
27163;SDS011;14685;50.618;7.024;2022-09-29T15:27:35;1.25;;;1.05;;
27163;SDS011;14685;50.618;7.024;2022-09-29T15:30:06;0.80;;;0.77;;
27163;SDS011;14685;50.618;7.024;2022-09-29T15:32:43;2.10;;;0.98;;
27163;SDS011;14685;50.618;7.024;2022-09-29T15:35:12;3.72;;;1.08;;
27163;SDS011;14685;50.618;7.024;2022-09-29T15:40:19;3.65;;;1.10;;
27163;SDS011;14685;50.618;7.024;2022-09-29T15:42:50;2.83;;;1.25;;
27163;SDS011;14685;50.618;7.024;2022-09-29T15:45:20;1.45;;;0.90;;
27163;SDS011;14685;50.618;7.024;2022-09-29T15:47:56;1.92;;;0.90;;
27163;SDS011;14685;50.618;7.024;2022-09-29T15:50:29;2.70;;;0.93;;
27163;SDS011;14685;50.618;7.024;2022-09-29T15:52:58;2.58;;;0.70;;
27163;SDS011;14685;50.618;7.024;2022-09-29T15:55:31;5.63;;;1.08;;
27163;SDS011;14685;50.618;7.024;2022-09-29T15:57:58;3.70;;;0.85;;
27163;SDS011;14685;50.618;7.024;2022-09-29T16:05:52;2.63;;;0.80;;
27163;SDS011;14685;50.618;7.024;2022-09-29T16:08:26;1.10;;;0.80;;
27163;SDS011;14685;50.618;7.024;2022-09-29T16:10:57;1.13;;;0.88;;
27163;SDS011;14685;50.618;7.024;2022-09-29T16:13:28;2.63;;;1.00;;
27163;SDS011;14685;50.618;7.024;2022-09-29T16:16:07;3.75;;;0.80;;
27163;SDS011;14685;50.618;7.024;2022-09-29T16:18:42;3.88;;;0.90;;
27163;SDS011;14685;50.618;7.024;2022-09-29T16:21:15;2.80;;;0.90;;
27163;SDS011;14685;50.618;7.024;2022-09-29T16:23:59;2.10;;;0.90;;
27163;SDS011;14685;50.618;7.024;2022-09-29T16:26:39;1.15;;;0.80;;
27163;SDS011;14685;50.618;7.024;2022-09-29T16:31:38;3.08;;;1.90;;
27163;SDS011;14685;50.618;7.024;2022-09-29T16:34:21;4.85;;;3.40;;
27163;SDS011;14685;50.618;7.024;2022-09-29T16:37:02;9.00;;;4.20;;
27163;SDS011;14685;50.618;7.024;2022-09-29T16:39:44;5.53;;;3.10;;
27163;SDS011;14685;50.618;7.024;2022-09-29T16:42:24;3.50;;;2.67;;
27163;SDS011;14685;50.618;7.024;2022-09-29T16:44:52;3.17;;;1.70;;
27163;SDS011;14685;50.618;7.024;2022-09-29T16:47:23;2.67;;;1.60;;
27163;SDS011;14685;50.618;7.024;2022-09-29T16:49:53;2.17;;;1.80;;
27163;SDS011;14685;50.618;7.024;2022-09-29T16:55:05;2.22;;;1.70;;
27163;SDS011;14685;50.618;7.024;2022-09-29T16:57:53;3.17;;;1.77;;
27163;SDS011;14685;50.618;7.024;2022-09-29T17:00:24;3.35;;;1.77;;
27163;SDS011;14685;50.618;7.024;2022-09-29T17:02:51;4.47;;;1.60;;
27163;SDS011;14685;50.618;7.024;2022-09-29T17:05:24;4.68;;;2.17;;
27163;SDS011;14685;50.618;7.024;2022-09-29T17:08:00;7.63;;;4.00;;
27163;SDS011;14685;50.618;7.024;2022-09-29T17:10:30;16.13;;;7.93;;
27163;SDS011;14685;50.618;7.024;2022-09-29T17:12:57;15.15;;;7.75;;
27163;SDS011;14685;50.618;7.024;2022-09-29T17:15:24;19.48;;;9.20;;
27163;SDS011;14685;50.618;7.024;2022-09-29T17:17:51;10.90;;;4.57;;
27163;SDS011;14685;50.618;7.024;2022-09-29T17:20:19;5.63;;;3.50;;
27163;SDS011;14685;50.618;7.024;2022-09-29T17:22:55;4.05;;;2.80;;
27163;SDS011;14685;50.618;7.024;2022-09-29T17:25:24;4.15;;;2.40;;
27163;SDS011;14685;50.618;7.024;2022-09-29T17:27:51;9.25;;;4.78;;
27163;SDS011;14685;50.618;7.024;2022-09-29T17:30:37;6.60;;;3.90;;
27163;SDS011;14685;50.618;7.024;2022-09-29T17:33:04;5.43;;;3.00;;
27163;SDS011;14685;50.618;7.024;2022-09-29T17:35:34;4.80;;;2.42;;
27163;SDS011;14685;50.618;7.024;2022-09-29T17:38:03;6.07;;;1.70;;
27163;SDS011;14685;50.618;7.024;2022-09-29T17:40:36;2.20;;;1.58;;
27163;SDS011;14685;50.618;7.024;2022-09-29T17:43:16;2.58;;;1.70;;
27163;SDS011;14685;50.618;7.024;2022-09-29T17:45:44;5.45;;;1.88;;
27163;SDS011;14685;50.618;7.024;2022-09-29T17:48:13;4.22;;;1.63;;
27163;SDS011;14685;50.618;7.024;2022-09-29T17:50:50;3.63;;;1.85;;
27163;SDS011;14685;50.618;7.024;2022-09-29T17:53:21;6.43;;;3.30;;
27163;SDS011;14685;50.618;7.024;2022-09-29T17:55:49;3.75;;;3.00;;
27163;SDS011;14685;50.618;7.024;2022-09-29T17:58:20;4.38;;;3.10;;
27163;SDS011;14685;50.618;7.024;2022-09-29T18:00:49;4.63;;;3.83;;
27163;SDS011;14685;50.618;7.024;2022-09-29T18:03:17;8.27;;;4.90;;
27163;SDS011;14685;50.618;7.024;2022-09-29T18:05:46;6.00;;;5.07;;
27163;SDS011;14685;50.618;7.024;2022-09-29T18:08:15;6.05;;;4.72;;
27163;SDS011;14685;50.618;7.024;2022-09-29T18:10:48;8.52;;;4.80;;
27163;SDS011;14685;50.618;7.024;2022-09-29T18:13:18;4.88;;;4.00;;
27163;SDS011;14685;50.618;7.024;2022-09-29T18:15:45;5.68;;;4.00;;
27163;SDS011;14685;50.618;7.024;2022-09-29T18:18:13;6.22;;;4.88;;
27163;SDS011;14685;50.618;7.024;2022-09-29T18:20:42;5.57;;;4.63;;
27163;SDS011;14685;50.618;7.024;2022-09-29T18:23:13;7.43;;;4.28;;
27163;SDS011;14685;50.618;7.024;2022-09-29T18:25:45;6.38;;;3.85;;
27163;SDS011;14685;50.618;7.024;2022-09-29T18:28:14;6.60;;;3.90;;